KOZRKDHN

Guest
Details From KOZR - CAIRNS AAF
To KDHN - Dothan Rgnl
Flight Number -
Tags generated
Created
Modified
Stats Distance 14 nm / 26 km
Max Altitude 0 ft / 0 m
Waypoints 2
Social Downloads 1
Likes 0
Share VATSIM

Download

Looking for another format? Having issues loading an existing format? Contact us
Advertisement - Login to hide

Notes

Basic altitude profile: - Ascent Rate: 2500ft/min - Ascent Speed: 250kts - Cruise Altitude: 35000ft - Cruise Speed: 420kts - Descent Rate: 1500ft/min - Descent Speed: 250kts Options: - Use NATs: yes - Use PACOTS: yes - Use low airways: yes - Use high airways: no

Route

KOZR KDHN

ID Type Via Altitude Latitude Longitude Leg Dist Tot Dist Heading (true) Name
O KOZR APT - 0 ft / 0 m 31.27746˚ -85.71320˚ - 0 nm - CAIRNS AAF
O KDHN APT - 0 ft / 0 m 31.32101˚ -85.44879˚ 13 nm 13 nm 79° / 79° Dothan Rgnl

Altitude Profile

Advertisement - Login to hide

KOZR

Details ICAO KOZR
Name CAIRNS AAF
Region United States
Timezone America/Chicago (UTC-6.0)
Stats Elevation 301 ft / 92 m (AMSL)
Location 31.277463° -85.713197°
Runways 3
Magnetic Variation 3.908° W

METAR

KOZR 162356Z AUTO 06003KT 10SM CLR 10/00 A3026 RMK AO2 SLP251 T01031002 10152 20093 52010

Decode

TAF

Not found

Departure Runways

ID Width Length Bearing (true) Bearing (mag) Surface Threshold Offset Overrun Length
06 150 ft / 46 m 4,544 ft / 1,385 m 60.65° 64.56° Asphalt 0 ft / 0 m 500 ft / 152 m
14 150 ft / 46 m 4,503 ft / 1,372 m 134.43° 138.34° Asphalt 0 ft / 0 m 0 ft / 0 m
18 150 ft / 46 m 5,040 ft / 1,536 m 180.95° 184.86° Asphalt 0 ft / 0 m 500 ft / 152 m
24 150 ft / 46 m 4,544 ft / 1,385 m 240.66° 244.57° Asphalt 0 ft / 0 m 500 ft / 152 m
32 150 ft / 46 m 4,503 ft / 1,372 m 314.44° 318.35° Asphalt 0 ft / 0 m 0 ft / 0 m
36 150 ft / 46 m 5,040 ft / 1,536 m 0.95° 4.86° Asphalt 0 ft / 0 m 500 ft / 152 m

KDHN

Details ICAO KDHN (DHN)
Name Dothan Rgnl
Region United States
Timezone America/Chicago (UTC-6.0)
Stats Elevation 401 ft / 122 m (AMSL)
Location 31.321005° -85.448787°
Runways 2
Magnetic Variation 4.092° W

METAR

KDHN 162353Z 10003KT 10SM CLR 07/02 A3029 RMK AO2 SLP259 T00720022 10156 20072 53013 $

Decode

TAF

TAF KDHN 162320Z 1700/1724 VRB04KT P6SM SCT250 FM171200 14008KT P6SM BKN050

Decode

Destination Runways

ID Width Length Bearing (true) Bearing (mag) Surface Threshold Offset Overrun Length
14 150 ft / 46 m 8,504 ft / 2,592 m 135.08° 139.17° Asphalt 0 ft / 0 m 0 ft / 0 m
18 150 ft / 46 m 5,016 ft / 1,529 m 179.99° 184.08° Asphalt 0 ft / 0 m 0 ft / 0 m
32 150 ft / 46 m 8,504 ft / 2,592 m 315.09° 319.18° Asphalt 0 ft / 0 m 0 ft / 0 m
36 150 ft / 46 m 5,016 ft / 1,529 m 359.99° 4.08° Asphalt 0 ft / 0 m 0 ft / 0 m

Approach Navaids

Runway Type Ident Frequency Range Bearing (true) Bearing (mag) Slope Elevation
32 Localiser IDHN 108.30 MHz 18 nm / 33 km 315.07° 319.17° - 401 ft / 122 m (AMSL)
32 Glidescope IDHN 108.30 MHz 10 nm / 19 km 315.08° 319.18° 3.00° 374 ft / 114 m (AMSL)

Popular Alternatives